createdAt,value
2022-08-07T00:01:44.439Z,1.48
2022-08-07T00:04:04.605Z,1.42
2022-08-07T00:06:33.857Z,1.45
2022-08-07T00:09:16.154Z,1.60
2022-08-07T00:11:53.951Z,1.80
2022-08-07T00:14:25.335Z,1.65
2022-08-07T00:16:57.766Z,1.48
2022-08-07T00:19:26.060Z,1.67
2022-08-07T00:22:03.257Z,1.70
2022-08-07T00:24:31.560Z,1.90
2022-08-07T00:27:07.542Z,1.48
2022-08-07T00:29:37.107Z,1.38
2022-08-07T00:32:05.791Z,2.05
2022-08-07T00:34:35.658Z,1.90
2022-08-07T00:37:04.890Z,1.60
2022-08-07T00:39:33.561Z,1.75
2022-08-07T00:42:05.166Z,1.60
2022-08-07T00:44:34.024Z,1.52
2022-08-07T00:47:06.582Z,1.58
2022-08-07T00:50:19.185Z,1.67
2022-08-07T00:52:33.300Z,1.80
2022-08-07T00:55:04.618Z,1.80
2022-08-07T00:57:38.301Z,1.75
2022-08-07T01:00:23.086Z,2.10
2022-08-07T01:02:51.332Z,2.27
2022-08-07T01:05:20.778Z,2.10
2022-08-07T01:07:51.973Z,1.95
2022-08-07T01:10:20.796Z,1.80
2022-08-07T01:12:54.168Z,1.73
2022-08-07T01:15:36.136Z,2.17
2022-08-07T01:18:17.138Z,1.50
2022-08-07T01:20:57.264Z,1.75
2022-08-07T01:23:38.536Z,1.90
2022-08-07T01:26:11.864Z,1.70
2022-08-07T01:28:45.968Z,1.47
2022-08-07T01:31:17.884Z,1.67
2022-08-07T01:33:55.732Z,1.90
2022-08-07T01:36:33.624Z,1.98
2022-08-07T01:39:09.982Z,1.90
2022-08-07T01:41:40.725Z,2.00
2022-08-07T01:44:24.886Z,1.90
2022-08-07T01:46:52.614Z,2.10
2022-08-07T01:49:22.149Z,1.90
2022-08-07T01:52:02.130Z,1.80
2022-08-07T01:54:38.038Z,1.70
2022-08-07T01:57:24.119Z,2.10
2022-08-07T02:00:12.817Z,2.20
2022-08-07T02:03:19.160Z,2.03
2022-08-07T02:05:48.107Z,1.75
2022-08-07T02:08:26.141Z,1.90
2022-08-07T02:10:58.184Z,2.00
2022-08-07T02:13:58.312Z,2.28
2022-08-07T02:16:19.735Z,2.08
2022-08-07T02:18:51.169Z,2.40
2022-08-07T02:21:19.989Z,2.07
2022-08-07T02:23:49.364Z,2.20
2022-08-07T02:26:30.556Z,2.33
2022-08-07T02:29:00.996Z,2.47
2022-08-07T02:31:29.563Z,2.78
2022-08-07T02:34:03.048Z,2.43
2022-08-07T02:36:37.584Z,2.38
2022-08-07T02:39:17.354Z,2.35
2022-08-07T02:42:02.626Z,2.28
2022-08-07T02:44:34.837Z,2.20
2022-08-07T02:47:06.486Z,2.50
2022-08-07T02:49:57.629Z,2.60
2022-08-07T02:52:38.689Z,2.30
2022-08-07T02:56:02.990Z,2.25
2022-08-07T02:58:21.794Z,2.20
2022-08-07T03:00:52.131Z,3.10
2022-08-07T03:03:22.501Z,2.25
2022-08-07T03:05:54.203Z,2.50
2022-08-07T03:08:26.879Z,2.10
2022-08-07T03:10:58.838Z,1.88
2022-08-07T03:13:38.822Z,2.53
2022-08-07T03:16:18.253Z,2.17
2022-08-07T03:18:51.826Z,2.15
2022-08-07T03:21:20.116Z,2.55
2022-08-07T03:24:20.399Z,2.22
2022-08-07T03:26:50.975Z,2.40
2022-08-07T03:29:23.066Z,1.95
2022-08-07T03:31:56.689Z,2.20
2022-08-07T03:34:27.182Z,2.42
2022-08-07T03:36:59.394Z,2.25
2022-08-07T03:39:46.084Z,2.67
2022-08-07T03:42:18.197Z,2.47
2022-08-07T03:44:53.470Z,1.90
2022-08-07T03:47:28.061Z,1.98
2022-08-07T03:49:57.916Z,2.45
2022-08-07T03:52:31.032Z,2.40
2022-08-07T03:55:06.544Z,2.50
2022-08-07T03:58:33.099Z,1.80
2022-08-07T04:00:35.429Z,2.03
2022-08-07T04:03:04.800Z,2.20
2022-08-07T04:05:40.734Z,2.30
2022-08-07T04:08:16.017Z,2.50
2022-08-07T04:10:54.712Z,1.83
2022-08-07T04:14:09.273Z,2.55
2022-08-07T04:16:30.165Z,1.80
2022-08-07T04:19:04.271Z,2.43
2022-08-07T04:21:48.030Z,2.15
2022-08-07T04:24:33.657Z,2.60
2022-08-07T04:27:05.402Z,2.45
2022-08-07T04:29:58.514Z,2.20
2022-08-07T04:32:36.554Z,2.07
2022-08-07T04:35:11.131Z,2.33
2022-08-07T04:38:01.366Z,2.30
2022-08-07T04:40:30.059Z,2.08
2022-08-07T04:43:02.042Z,2.10
2022-08-07T04:46:03.505Z,2.73
2022-08-07T04:48:38.535Z,2.58
2022-08-07T04:51:20.331Z,2.50
2022-08-07T04:54:12.576Z,2.70
2022-08-07T04:58:15.788Z,1.95
2022-08-07T05:00:12.875Z,2.73
2022-08-07T05:02:24.977Z,2.45
2022-08-07T05:04:59.872Z,2.45
2022-08-07T05:07:36.830Z,2.42
2022-08-07T05:10:13.091Z,2.08
2022-08-07T05:12:52.923Z,2.17
2022-08-07T05:15:31.476Z,1.90
2022-08-07T05:18:08.693Z,2.20
2022-08-07T05:20:40.830Z,2.13
2022-08-07T05:23:16.179Z,2.30
2022-08-07T05:26:13.564Z,1.80
2022-08-07T05:28:36.055Z,1.95
2022-08-07T05:31:04.364Z,2.42
2022-08-07T05:33:35.644Z,2.03
2022-08-07T05:36:08.267Z,2.42
2022-08-07T05:38:58.212Z,3.30
2022-08-07T05:42:00.476Z,3.42
2022-08-07T05:44:29.452Z,2.83
2022-08-07T05:47:00.362Z,2.95
2022-08-07T05:49:37.204Z,2.70
2022-08-07T05:52:11.795Z,2.40
2022-08-07T05:54:53.188Z,2.10
2022-08-07T05:57:26.584Z,2.58
2022-08-07T06:00:00.318Z,2.90
2022-08-07T06:02:40.962Z,2.22
2022-08-07T06:05:15.753Z,2.27
2022-08-07T06:08:30.422Z,2.10
2022-08-07T06:10:37.410Z,2.00
2022-08-07T06:13:06.563Z,2.25
2022-08-07T06:15:42.972Z,2.35
2022-08-07T06:18:16.950Z,1.83
2022-08-07T06:20:50.916Z,2.30
2022-08-07T06:24:37.178Z,2.30
2022-08-07T06:26:27.447Z,2.15
2022-08-07T06:28:59.685Z,1.75
2022-08-07T06:31:46.596Z,1.80
2022-08-07T06:34:20.888Z,2.00
2022-08-07T06:36:51.922Z,3.10
2022-08-07T06:40:13.585Z,2.40
2022-08-07T06:42:33.065Z,2.25
2022-08-07T06:45:23.924Z,1.80
2022-08-07T06:47:59.326Z,2.33
2022-08-07T06:50:36.038Z,1.90
2022-08-07T06:53:06.741Z,1.92
2022-08-07T06:56:01.158Z,2.03
2022-08-07T06:58:32.090Z,2.17
2022-08-07T07:01:07.768Z,1.92
2022-08-07T07:03:49.089Z,1.70
2022-08-07T07:06:23.791Z,1.92
2022-08-07T07:08:54.868Z,1.75
2022-08-07T07:12:08.496Z,1.70
2022-08-07T07:14:14.109Z,1.80
2022-08-07T07:16:50.040Z,1.58
2022-08-07T07:19:55.225Z,1.65
2022-08-07T07:22:34.079Z,1.58
2022-08-07T07:25:13.918Z,1.60
2022-08-07T07:28:42.325Z,2.00
2022-08-07T07:31:13.474Z,2.20
2022-08-07T07:33:54.942Z,1.58
2022-08-07T07:36:25.183Z,1.98
2022-08-07T07:39:01.253Z,1.50
2022-08-07T07:41:30.878Z,1.00
2022-08-07T07:44:25.842Z,1.40
2022-08-07T07:47:04.281Z,2.17
2022-08-07T07:50:34.081Z,2.00
2022-08-07T07:52:31.238Z,1.97
2022-08-07T07:54:59.305Z,2.05
2022-08-07T07:57:43.527Z,2.00
2022-08-07T08:00:28.822Z,2.05
2022-08-07T08:03:05.170Z,2.17
2022-08-07T08:05:53.817Z,1.73
2022-08-07T08:08:34.258Z,3.10
2022-08-07T08:11:06.001Z,1.77
2022-08-07T08:13:52.862Z,1.40
2022-08-07T08:16:25.165Z,2.05
2022-08-07T08:18:55.411Z,1.90
2022-08-07T08:21:55.984Z,1.73
2022-08-07T08:24:57.075Z,1.65
2022-08-07T08:27:39.846Z,1.98
2022-08-07T08:30:14.294Z,1.60
2022-08-07T08:32:53.071Z,2.23
2022-08-07T08:35:24.116Z,1.85
2022-08-07T08:38:00.575Z,1.50
2022-08-07T08:40:34.671Z,1.50
2022-08-07T08:43:02.279Z,3.00
2022-08-07T08:45:59.624Z,1.50
2022-08-07T08:48:28.362Z,2.00
2022-08-07T08:51:14.787Z,1.63
2022-08-07T08:54:11.681Z,1.35
2022-08-07T08:56:47.214Z,1.30
2022-08-07T08:59:27.419Z,1.50
2022-08-07T09:02:10.108Z,1.45
2022-08-07T09:04:42.152Z,1.33
2022-08-07T09:07:25.980Z,1.33
2022-08-07T09:10:03.173Z,1.75
2022-08-07T09:12:54.468Z,1.47
2022-08-07T09:16:22.612Z,1.10
2022-08-07T09:19:03.395Z,1.30
2022-08-07T09:22:10.085Z,1.50
2022-08-07T09:24:55.407Z,1.13
2022-08-07T09:27:31.438Z,1.20
2022-08-07T09:30:20.767Z,1.45
2022-08-07T09:33:16.464Z,1.45
2022-08-07T09:36:05.188Z,1.40
2022-08-07T09:38:36.189Z,1.65
2022-08-07T09:41:10.302Z,1.70
2022-08-07T09:44:05.871Z,2.78
2022-08-07T09:47:50.042Z,2.00
2022-08-07T09:50:00.697Z,2.03
2022-08-07T09:52:37.992Z,1.98
2022-08-07T09:55:05.515Z,1.70
2022-08-07T09:58:03.623Z,1.88
2022-08-07T10:00:39.961Z,1.27
2022-08-07T10:04:05.050Z,2.05
2022-08-07T10:06:04.472Z,2.03
2022-08-07T10:08:44.251Z,2.30
2022-08-07T10:12:02.358Z,2.15
2022-08-07T10:14:31.419Z,2.70
2022-08-07T10:17:17.590Z,2.38
2022-08-07T10:19:54.570Z,1.95
2022-08-07T10:22:33.520Z,2.63
2022-08-07T10:25:01.409Z,2.30
2022-08-07T10:27:46.439Z,2.00
2022-08-07T10:30:35.103Z,2.38
2022-08-07T10:34:05.153Z,2.00
2022-08-07T10:36:18.749Z,2.00
2022-08-07T10:39:13.456Z,2.20
2022-08-07T10:41:46.882Z,1.67
2022-08-07T10:44:28.798Z,2.42
2022-08-07T10:47:11.857Z,2.00
2022-08-07T10:49:58.996Z,1.53
2022-08-07T10:52:34.458Z,1.70
2022-08-07T10:55:21.170Z,1.85
2022-08-07T10:58:14.302Z,1.90
2022-08-07T11:00:56.063Z,1.70
2022-08-07T11:03:52.956Z,1.63
2022-08-07T11:06:27.073Z,1.80
2022-08-07T11:10:08.971Z,1.48
2022-08-07T11:12:31.336Z,2.10
2022-08-07T11:15:01.806Z,1.90
2022-08-07T11:17:43.457Z,1.77
2022-08-07T11:20:22.516Z,1.70
2022-08-07T11:23:10.552Z,1.40
2022-08-07T11:25:49.985Z,1.40
2022-08-07T11:28:41.291Z,1.60
2022-08-07T11:31:28.620Z,2.20
2022-08-07T11:34:17.241Z,2.17
2022-08-07T11:36:50.404Z,2.05
2022-08-07T11:39:39.876Z,1.60
2022-08-07T11:42:22.862Z,2.17
2022-08-07T11:45:20.576Z,1.60
2022-08-07T11:47:59.008Z,1.00
2022-08-07T11:50:57.802Z,1.20
2022-08-07T11:53:25.490Z,1.60
2022-08-07T11:56:24.746Z,1.20
2022-08-07T11:58:54.605Z,1.43
2022-08-07T12:01:59.217Z,1.92
2022-08-07T12:04:39.410Z,1.35
2022-08-07T12:07:09.089Z,1.10
2022-08-07T12:10:12.573Z,1.00
2022-08-07T12:12:54.546Z,0.90
2022-08-07T12:15:46.171Z,1.38
2022-08-07T12:18:29.768Z,0.73
2022-08-07T12:21:06.718Z,0.90
2022-08-07T12:24:07.483Z,1.02
2022-08-07T12:26:46.813Z,0.93
2022-08-07T12:29:38.646Z,1.70
2022-08-07T12:32:16.768Z,1.00
2022-08-07T12:34:49.440Z,0.93
2022-08-07T12:37:28.418Z,0.70
2022-08-07T12:40:36.139Z,1.00
2022-08-07T12:43:01.271Z,1.13
2022-08-07T12:45:42.689Z,1.20
2022-08-07T12:48:41.545Z,0.82
2022-08-07T12:51:33.215Z,0.70
2022-08-07T12:54:38.375Z,0.60
2022-08-07T12:57:10.083Z,0.93
2022-08-07T12:59:54.213Z,1.10
2022-08-07T13:02:33.367Z,1.40
2022-08-07T13:05:01.763Z,1.50
2022-08-07T13:08:14.029Z,1.20
2022-08-07T13:10:39.355Z,2.00
2022-08-07T13:13:09.623Z,1.75
2022-08-07T13:15:45.478Z,1.73
2022-08-07T13:18:26.199Z,1.70
2022-08-07T13:21:07.240Z,2.33
2022-08-07T13:24:00.788Z,1.40
2022-08-07T13:26:38.623Z,1.65
2022-08-07T13:29:17.734Z,1.60
2022-08-07T13:31:57.357Z,1.45
2022-08-07T13:34:39.115Z,1.80
2022-08-07T13:37:20.011Z,1.63
2022-08-07T13:40:36.702Z,1.65
2022-08-07T13:42:39.754Z,1.77
2022-08-07T13:46:07.075Z,1.73
2022-08-07T13:48:07.865Z,1.90
2022-08-07T13:51:00.497Z,1.70
2022-08-07T13:53:55.253Z,2.10
2022-08-07T13:56:20.019Z,2.08
2022-08-07T13:59:05.389Z,2.92
2022-08-07T14:01:59.102Z,3.40
2022-08-07T14:04:24.896Z,2.92
2022-08-07T14:07:09.178Z,3.90
2022-08-07T14:10:01.344Z,2.88
2022-08-07T14:12:36.865Z,3.35
2022-08-07T14:15:12.271Z,2.90
2022-08-07T14:18:12.817Z,2.90
2022-08-07T14:20:40.343Z,2.60
2022-08-07T14:24:00.723Z,3.33
2022-08-07T14:26:30.376Z,2.85
2022-08-07T14:29:08.754Z,2.90
2022-08-07T14:31:43.338Z,2.05
2022-08-07T14:34:27.254Z,2.28
2022-08-07T14:36:57.154Z,2.40
2022-08-07T14:42:20.868Z,2.20
2022-08-07T14:44:53.475Z,1.80
2022-08-07T14:47:23.220Z,2.45
2022-08-07T14:49:59.138Z,2.17
2022-08-07T14:52:29.010Z,2.10
2022-08-07T14:54:58.434Z,1.90
2022-08-07T14:57:54.373Z,1.38
2022-08-07T15:00:20.456Z,2.67
2022-08-07T15:02:56.734Z,1.90
2022-08-07T15:05:25.387Z,2.00
2022-08-07T15:07:52.864Z,2.30
2022-08-07T15:13:16.418Z,1.83
2022-08-07T15:15:52.542Z,1.70
2022-08-07T15:25:16.041Z,1.60
2022-08-07T15:27:11.295Z,1.52
2022-08-07T15:30:08.799Z,1.33
2022-08-07T15:32:38.946Z,1.40
2022-08-07T15:35:12.925Z,1.23
2022-08-07T15:38:04.657Z,1.50
2022-08-07T15:40:34.899Z,2.05
2022-08-07T15:49:13.046Z,1.70
2022-08-07T15:54:26.978Z,1.60
2022-08-07T15:56:58.788Z,1.55
2022-08-07T15:59:39.833Z,1.90
2022-08-07T16:02:15.191Z,1.77
2022-08-07T16:04:44.068Z,1.67
2022-08-07T16:08:28.298Z,1.50
2022-08-07T16:10:14.234Z,1.90
2022-08-07T16:12:42.189Z,1.90
2022-08-07T16:15:58.009Z,1.87
2022-08-07T16:18:50.110Z,2.78
2022-08-07T16:22:04.955Z,2.47
2022-08-07T16:24:34.784Z,1.55
2022-08-07T16:27:18.312Z,1.30
2022-08-07T16:30:11.878Z,1.17
2022-08-07T16:32:54.409Z,1.63
2022-08-07T16:35:51.455Z,1.35
2022-08-07T16:41:41.090Z,1.60
2022-08-07T16:44:53.741Z,1.70
2022-08-07T16:47:38.634Z,1.73
2022-08-07T16:50:35.925Z,1.73
2022-08-07T16:54:02.197Z,1.85
2022-08-07T16:56:25.914Z,2.17
2022-08-07T16:59:10.804Z,1.80
2022-08-07T17:01:59.155Z,1.70
2022-08-07T17:04:30.474Z,1.75
2022-08-07T17:07:10.475Z,1.77
2022-08-07T17:10:07.473Z,1.73
2022-08-07T17:12:38.799Z,2.13
2022-08-07T17:15:16.025Z,2.05
2022-08-07T17:17:47.581Z,2.20
2022-08-07T17:20:21.475Z,1.95
2022-08-07T17:23:01.955Z,1.90
2022-08-07T17:25:51.363Z,1.90
2022-08-07T17:28:25.234Z,2.10
2022-08-07T17:31:15.721Z,2.47
2022-08-07T17:34:32.528Z,2.42
2022-08-07T17:36:57.792Z,1.90
2022-08-07T17:39:53.188Z,2.17
2022-08-07T17:42:29.641Z,2.47
2022-08-07T17:44:58.969Z,1.73
2022-08-07T17:47:37.687Z,2.28
2022-08-07T17:50:30.490Z,2.10
2022-08-07T17:53:01.715Z,2.27
2022-08-07T17:56:00.078Z,2.00
2022-08-07T17:58:35.598Z,2.05
2022-08-07T18:01:20.562Z,2.20
2022-08-07T18:04:07.005Z,1.95
2022-08-07T18:06:58.091Z,2.23
2022-08-07T18:10:05.046Z,1.70
2022-08-07T18:12:27.886Z,2.00
2022-08-07T18:15:01.000Z,2.10
2022-08-07T18:18:47.318Z,1.90
2022-08-07T18:21:06.659Z,2.07
2022-08-07T18:23:42.685Z,2.28
2022-08-07T18:26:02.431Z,1.83
2022-08-07T18:28:58.125Z,2.42
2022-08-07T18:31:40.434Z,2.20
2022-08-07T18:34:39.282Z,2.80
2022-08-07T18:37:09.452Z,3.05
2022-08-07T18:40:08.226Z,2.42
2022-08-07T18:42:45.362Z,2.28
2022-08-07T18:45:39.943Z,4.15
2022-08-07T18:50:04.609Z,2.30
2022-08-07T18:51:11.503Z,2.20
2022-08-07T18:53:45.300Z,2.45
2022-08-07T18:56:16.046Z,2.33
2022-08-07T18:58:43.338Z,2.08
2022-08-07T19:02:18.920Z,2.23
2022-08-07T19:04:57.952Z,2.15
2022-08-07T19:07:52.872Z,2.47
2022-08-07T19:10:31.163Z,3.20
2022-08-07T19:13:10.165Z,2.47
2022-08-07T19:16:04.932Z,2.20
2022-08-07T19:18:45.116Z,2.20
2022-08-07T19:21:45.073Z,2.70
2022-08-07T19:24:07.235Z,2.40
2022-08-07T19:26:55.620Z,2.22
2022-08-07T19:31:00.297Z,2.13
2022-08-07T19:32:25.754Z,2.38
2022-08-07T19:35:12.932Z,2.70
2022-08-07T19:37:57.192Z,2.42
2022-08-07T19:40:30.933Z,2.63
2022-08-07T19:43:00.545Z,2.90
2022-08-07T19:46:01.161Z,3.40
2022-08-07T19:48:24.228Z,2.80
2022-08-07T19:50:53.523Z,2.55
2022-08-07T19:54:29.751Z,3.20
2022-08-07T19:56:58.583Z,3.00
2022-08-07T19:58:58.287Z,2.97
2022-08-07T20:01:52.370Z,3.20
2022-08-07T20:04:31.682Z,2.65
2022-08-07T20:07:04.297Z,2.55
2022-08-07T20:10:33.713Z,2.33
2022-08-07T20:12:34.821Z,2.40
2022-08-07T20:15:04.294Z,2.17
2022-08-07T20:17:38.829Z,2.58
2022-08-07T20:20:07.985Z,2.58
2022-08-07T20:22:40.759Z,2.70
2022-08-07T20:25:12.772Z,2.38
2022-08-07T20:27:58.171Z,2.20
2022-08-07T20:30:30.851Z,2.70
2022-08-07T20:32:59.831Z,2.40
2022-08-07T20:35:54.399Z,2.37
2022-08-07T20:38:24.885Z,2.20
2022-08-07T20:40:58.336Z,2.60
2022-08-07T20:43:27.139Z,2.47
2022-08-07T20:46:28.339Z,2.35
2022-08-07T20:49:53.995Z,2.63
2022-08-07T20:51:36.118Z,2.78
2022-08-07T20:54:12.241Z,2.28
2022-08-07T20:56:46.249Z,2.42
2022-08-07T21:00:05.245Z,2.45
2022-08-07T21:02:20.972Z,2.50
2022-08-07T21:04:50.748Z,2.65
2022-08-07T21:07:23.414Z,2.08
2022-08-07T21:09:59.312Z,2.65
2022-08-07T21:12:30.992Z,2.60
2022-08-07T21:15:00.844Z,2.50
2022-08-07T21:18:05.931Z,2.70
2022-08-07T21:20:30.362Z,1.77
2022-08-07T21:23:08.138Z,2.70
2022-08-07T21:25:50.887Z,2.35
2022-08-07T21:28:49.035Z,2.20
2022-08-07T21:31:49.710Z,2.00
2022-08-07T21:34:16.408Z,1.80
2022-08-07T21:36:50.204Z,2.00
2022-08-07T21:39:45.378Z,2.75
2022-08-07T21:42:42.495Z,2.63
2022-08-07T21:46:10.419Z,2.22
2022-08-07T21:48:41.234Z,1.83
2022-08-07T21:51:19.429Z,2.00
2022-08-07T21:53:54.030Z,2.35
2022-08-07T21:56:47.894Z,2.63
2022-08-07T21:59:19.280Z,2.35
2022-08-07T22:02:10.971Z,2.10
2022-08-07T22:04:37.451Z,2.35
2022-08-07T22:07:09.880Z,2.13
2022-08-07T22:09:54.053Z,1.70
2022-08-07T22:12:31.676Z,1.73
2022-08-07T22:16:43.194Z,1.77
2022-08-07T22:17:57.771Z,2.05
2022-08-07T22:21:01.412Z,1.73
2022-08-07T22:23:28.968Z,2.10
2022-08-07T22:26:05.980Z,1.98
2022-08-07T22:28:53.735Z,1.70
2022-08-07T22:31:56.095Z,2.05
2022-08-07T22:34:16.179Z,2.10
2022-08-07T22:36:52.607Z,2.17
2022-08-07T22:39:29.574Z,1.58
2022-08-07T22:42:18.847Z,1.80
2022-08-07T22:44:58.328Z,1.60
2022-08-07T22:47:37.290Z,1.67
2022-08-07T22:50:08.263Z,2.03
2022-08-07T22:52:46.532Z,1.88
2022-08-07T22:55:22.859Z,1.70
2022-08-07T22:57:53.435Z,1.65
2022-08-07T23:00:28.417Z,1.60
2022-08-07T23:03:02.326Z,1.70
2022-08-07T23:06:06.947Z,1.67
2022-08-07T23:08:55.969Z,1.58
2022-08-07T23:11:45.682Z,1.38
2022-08-07T23:14:48.930Z,1.50
2022-08-07T23:17:22.584Z,1.93
2022-08-07T23:20:17.634Z,1.30
2022-08-07T23:22:47.990Z,1.70
2022-08-07T23:25:28.653Z,1.45
2022-08-07T23:28:21.377Z,1.77
2022-08-07T23:31:18.642Z,1.40
2022-08-07T23:34:37.816Z,1.10
2022-08-07T23:37:20.449Z,1.40
2022-08-07T23:39:59.161Z,1.90
2022-08-07T23:42:30.655Z,1.50
2022-08-07T23:45:04.153Z,1.60
2022-08-07T23:47:42.205Z,1.85
2022-08-07T23:50:17.085Z,1.70
2022-08-07T23:53:01.714Z,1.40
2022-08-07T23:55:53.985Z,1.80
2022-08-07T23:58:27.261Z,1.40
